Terminal Aerodrome Forecast
Issued by NWS Paducah, KY

Home | Current Version | Previous Version | Text Only | Print | Product List | Glossary On
Versions: 1 2 3 4 5 6 7 8 9 10 11 12 13 14 15 16 17 18 19 20 21 22 23
000
FTUS43 KPAH 190700 AAA
TAFPAH
TAF AMD
KPAH 190736Z 1908/2006 00000KT 2SM BR SCT200
      TEMPO 1908/1912 1/4SM FG VV002
     FM191400 22006KT P6SM SCT050=

USA.gov is the U.S. government's official web portal to all federal, state and local government web resources and services.